sensor_id;sensor_type;location;lat;lon;timestamp;temperature;humidity
12025;DHT22;6073;53.230;10.444;2022-12-18T00:00:57;-5.90;99.90
12025;DHT22;6073;53.230;10.444;2022-12-18T00:03:23;-5.90;99.90
12025;DHT22;6073;53.230;10.444;2022-12-18T00:05:49;-5.90;99.90
12025;DHT22;6073;53.230;10.444;2022-12-18T00:08:16;-5.90;99.90
12025;DHT22;6073;53.230;10.444;2022-12-18T00:10:42;-5.90;99.90
12025;DHT22;6073;53.230;10.444;2022-12-18T00:13:08;-5.90;99.90
12025;DHT22;6073;53.230;10.444;2022-12-18T00:15:35;-5.90;99.90
12025;DHT22;6073;53.230;10.444;2022-12-18T00:18:00;-6.00;99.90
12025;DHT22;6073;53.230;10.444;2022-12-18T00:20:26;-5.90;99.90
12025;DHT22;6073;53.230;10.444;2022-12-18T00:22:52;-6.00;99.90
12025;DHT22;6073;53.230;10.444;2022-12-18T00:25:18;-5.90;99.90
12025;DHT22;6073;53.230;10.444;2022-12-18T00:27:44;-5.90;99.90
12025;DHT22;6073;53.230;10.444;2022-12-18T00:30:09;-5.90;99.90
12025;DHT22;6073;53.230;10.444;2022-12-18T00:32:35;-5.80;99.90
12025;DHT22;6073;53.230;10.444;2022-12-18T00:35:01;-5.90;99.90
12025;DHT22;6073;53.230;10.444;2022-12-18T00:37:27;-5.80;99.90
12025;DHT22;6073;53.230;10.444;2022-12-18T00:39:52;-5.80;99.90
12025;DHT22;6073;53.230;10.444;2022-12-18T00:42:18;-5.70;99.90
12025;DHT22;6073;53.230;10.444;2022-12-18T00:45:02;-5.70;99.90
12025;DHT22;6073;53.230;10.444;2022-12-18T00:47:27;-5.70;99.90
12025;DHT22;6073;53.230;10.444;2022-12-18T00:49:53;-5.70;99.90
12025;DHT22;6073;53.230;10.444;2022-12-18T00:52:18;-5.80;99.90
12025;DHT22;6073;53.230;10.444;2022-12-18T00:54:44;-5.80;99.90
12025;DHT22;6073;53.230;10.444;2022-12-18T00:57:09;-5.90;99.90
12025;DHT22;6073;53.230;10.444;2022-12-18T00:59:35;-5.80;99.90
12025;DHT22;6073;53.230;10.444;2022-12-18T01:02:00;-5.80;99.90
12025;DHT22;6073;53.230;10.444;2022-12-18T01:04:26;-5.80;99.90
12025;DHT22;6073;53.230;10.444;2022-12-18T01:06:51;-5.80;99.90
12025;DHT22;6073;53.230;10.444;2022-12-18T01:09:17;-5.90;99.90
12025;DHT22;6073;53.230;10.444;2022-12-18T01:11:42;-5.90;99.90
12025;DHT22;6073;53.230;10.444;2022-12-18T01:14:08;-5.80;99.90
12025;DHT22;6073;53.230;10.444;2022-12-18T01:16:34;-5.80;99.90
12025;DHT22;6073;53.230;10.444;2022-12-18T01:18:59;-5.80;99.90
12025;DHT22;6073;53.230;10.444;2022-12-18T01:21:25;-5.90;99.90
12025;DHT22;6073;53.230;10.444;2022-12-18T01:23:52;-5.90;99.90
12025;DHT22;6073;53.230;10.444;2022-12-18T01:26:19;-5.90;99.90
12025;DHT22;6073;53.230;10.444;2022-12-18T01:28:45;-5.90;99.90
12025;DHT22;6073;53.230;10.444;2022-12-18T01:31:22;-6.00;99.90
12025;DHT22;6073;53.230;10.444;2022-12-18T01:33:49;-6.00;99.90
12025;DHT22;6073;53.230;10.444;2022-12-18T01:36:27;-6.00;99.90
12025;DHT22;6073;53.230;10.444;2022-12-18T01:38:54;-6.00;99.90
12025;DHT22;6073;53.230;10.444;2022-12-18T01:41:22;-6.10;99.90
12025;DHT22;6073;53.230;10.444;2022-12-18T01:43:56;-6.10;99.90
12025;DHT22;6073;53.230;10.444;2022-12-18T01:46:23;-6.10;99.90
12025;DHT22;6073;53.230;10.444;2022-12-18T01:48:57;-6.10;99.90
12025;DHT22;6073;53.230;10.444;2022-12-18T01:51:24;-6.10;99.90
12025;DHT22;6073;53.230;10.444;2022-12-18T01:53:50;-6.10;99.90
12025;DHT22;6073;53.230;10.444;2022-12-18T01:56:20;-6.10;99.90
12025;DHT22;6073;53.230;10.444;2022-12-18T01:58:48;-6.20;99.90
12025;DHT22;6073;53.230;10.444;2022-12-18T02:01:17;-6.20;99.90
12025;DHT22;6073;53.230;10.444;2022-12-18T02:03:43;-6.20;99.90
12025;DHT22;6073;53.230;10.444;2022-12-18T02:06:28;-6.20;99.90
12025;DHT22;6073;53.230;10.444;2022-12-18T02:09:13;-6.20;99.90
12025;DHT22;6073;53.230;10.444;2022-12-18T02:11:55;-6.30;99.90
12025;DHT22;6073;53.230;10.444;2022-12-18T02:19:59;-6.50;99.90
12025;DHT22;6073;53.230;10.444;2022-12-18T02:27:44;-6.50;99.90
12025;DHT22;6073;53.230;10.444;2022-12-18T02:30:11;-6.50;99.90
12025;DHT22;6073;53.230;10.444;2022-12-18T02:32:40;-6.40;99.90
12025;DHT22;6073;53.230;10.444;2022-12-18T02:35:12;-6.50;99.90
12025;DHT22;6073;53.230;10.444;2022-12-18T02:37:40;-6.50;99.90
12025;DHT22;6073;53.230;10.444;2022-12-18T02:40:08;-6.50;99.90
12025;DHT22;6073;53.230;10.444;2022-12-18T02:42:34;-6.50;99.90
12025;DHT22;6073;53.230;10.444;2022-12-18T02:45:00;-6.50;99.90
12025;DHT22;6073;53.230;10.444;2022-12-18T02:47:30;-6.60;99.90
12025;DHT22;6073;53.230;10.444;2022-12-18T02:58:43;-6.90;99.90
12025;DHT22;6073;53.230;10.444;2022-12-18T03:01:21;-6.90;99.90
12025;DHT22;6073;53.230;10.444;2022-12-18T03:03:56;-7.00;99.90
12025;DHT22;6073;53.230;10.444;2022-12-18T03:06:47;-7.00;99.90
12025;DHT22;6073;53.230;10.444;2022-12-18T03:09:17;-7.00;99.90
12025;DHT22;6073;53.230;10.444;2022-12-18T03:11:48;-7.10;99.90
12025;DHT22;6073;53.230;10.444;2022-12-18T03:14:34;-7.10;99.90
12025;DHT22;6073;53.230;10.444;2022-12-18T03:17:05;-7.10;99.90
12025;DHT22;6073;53.230;10.444;2022-12-18T03:19:33;-7.00;99.90
12025;DHT22;6073;53.230;10.444;2022-12-18T03:22:02;-7.00;99.90
12025;DHT22;6073;53.230;10.444;2022-12-18T03:24:31;-6.90;99.90
12025;DHT22;6073;53.230;10.444;2022-12-18T03:27:01;-6.90;99.90
12025;DHT22;6073;53.230;10.444;2022-12-18T03:29:36;-6.90;99.90
12025;DHT22;6073;53.230;10.444;2022-12-18T03:32:08;-6.90;99.90
12025;DHT22;6073;53.230;10.444;2022-12-18T03:34:37;-6.90;99.90
12025;DHT22;6073;53.230;10.444;2022-12-18T03:37:05;-6.80;99.90
12025;DHT22;6073;53.230;10.444;2022-12-18T03:39:31;-6.90;99.90
12025;DHT22;6073;53.230;10.444;2022-12-18T03:44:52;-6.80;99.90
12025;DHT22;6073;53.230;10.444;2022-12-18T03:47:28;-6.80;99.90
12025;DHT22;6073;53.230;10.444;2022-12-18T03:52:56;-6.80;99.90
12025;DHT22;6073;53.230;10.444;2022-12-18T03:55:25;-6.80;99.90
12025;DHT22;6073;53.230;10.444;2022-12-18T03:57:52;-6.90;99.90
12025;DHT22;6073;53.230;10.444;2022-12-18T04:00:19;-6.90;99.90
12025;DHT22;6073;53.230;10.444;2022-12-18T04:02:50;-6.90;99.90
12025;DHT22;6073;53.230;10.444;2022-12-18T04:05:18;-6.90;99.90
12025;DHT22;6073;53.230;10.444;2022-12-18T04:07:47;-7.00;99.90
12025;DHT22;6073;53.230;10.444;2022-12-18T04:10:13;-7.10;99.90
12025;DHT22;6073;53.230;10.444;2022-12-18T04:12:39;-7.10;99.90
12025;DHT22;6073;53.230;10.444;2022-12-18T04:15:06;-7.10;99.90
12025;DHT22;6073;53.230;10.444;2022-12-18T04:17:32;-7.20;99.90
12025;DHT22;6073;53.230;10.444;2022-12-18T04:19:57;-7.20;99.90
12025;DHT22;6073;53.230;10.444;2022-12-18T04:22:23;-7.20;99.90
12025;DHT22;6073;53.230;10.444;2022-12-18T04:24:48;-7.20;99.90
12025;DHT22;6073;53.230;10.444;2022-12-18T04:27:14;-7.20;99.90
12025;DHT22;6073;53.230;10.444;2022-12-18T04:29:39;-7.30;99.90
12025;DHT22;6073;53.230;10.444;2022-12-18T04:32:05;-7.30;99.90
12025;DHT22;6073;53.230;10.444;2022-12-18T04:34:30;-7.30;99.90
12025;DHT22;6073;53.230;10.444;2022-12-18T04:36:56;-7.20;99.90
12025;DHT22;6073;53.230;10.444;2022-12-18T04:39:21;-7.20;99.90
12025;DHT22;6073;53.230;10.444;2022-12-18T04:41:47;-7.20;99.90
12025;DHT22;6073;53.230;10.444;2022-12-18T04:44:13;-7.20;99.90
12025;DHT22;6073;53.230;10.444;2022-12-18T04:46:38;-7.20;99.90
12025;DHT22;6073;53.230;10.444;2022-12-18T04:49:04;-7.20;99.90
12025;DHT22;6073;53.230;10.444;2022-12-18T04:51:30;-7.20;99.90
12025;DHT22;6073;53.230;10.444;2022-12-18T04:53:55;-7.20;99.90
12025;DHT22;6073;53.230;10.444;2022-12-18T04:56:21;-7.30;99.90
12025;DHT22;6073;53.230;10.444;2022-12-18T04:58:47;-7.20;99.90
12025;DHT22;6073;53.230;10.444;2022-12-18T05:01:14;-7.30;99.90
12025;DHT22;6073;53.230;10.444;2022-12-18T05:03:39;-7.30;99.90
12025;DHT22;6073;53.230;10.444;2022-12-18T05:06:05;-7.30;99.90
12025;DHT22;6073;53.230;10.444;2022-12-18T05:08:32;-7.30;99.90
12025;DHT22;6073;53.230;10.444;2022-12-18T05:13:30;-7.40;99.90
12025;DHT22;6073;53.230;10.444;2022-12-18T05:15:56;-7.40;99.90
12025;DHT22;6073;53.230;10.444;2022-12-18T05:18:22;-7.40;99.90
12025;DHT22;6073;53.230;10.444;2022-12-18T05:20:49;-7.40;99.90
12025;DHT22;6073;53.230;10.444;2022-12-18T05:23:15;-7.40;99.90
12025;DHT22;6073;53.230;10.444;2022-12-18T05:25:41;-7.40;99.90
12025;DHT22;6073;53.230;10.444;2022-12-18T05:28:06;-7.50;99.90
12025;DHT22;6073;53.230;10.444;2022-12-18T05:30:32;-7.50;99.90
12025;DHT22;6073;53.230;10.444;2022-12-18T05:32:57;-7.50;99.90
12025;DHT22;6073;53.230;10.444;2022-12-18T05:35:23;-7.50;99.90
12025;DHT22;6073;53.230;10.444;2022-12-18T05:37:48;-7.60;99.90
12025;DHT22;6073;53.230;10.444;2022-12-18T05:40:14;-7.70;99.90
12025;DHT22;6073;53.230;10.444;2022-12-18T05:42:39;-7.70;99.90
12025;DHT22;6073;53.230;10.444;2022-12-18T05:45:05;-7.60;99.90
12025;DHT22;6073;53.230;10.444;2022-12-18T05:47:31;-7.70;99.90
12025;DHT22;6073;53.230;10.444;2022-12-18T05:49:57;-7.70;99.90
12025;DHT22;6073;53.230;10.444;2022-12-18T05:52:22;-7.80;99.90
12025;DHT22;6073;53.230;10.444;2022-12-18T05:54:48;-7.80;99.90
12025;DHT22;6073;53.230;10.444;2022-12-18T05:57:13;-7.80;99.90
12025;DHT22;6073;53.230;10.444;2022-12-18T05:59:39;-7.80;99.90
12025;DHT22;6073;53.230;10.444;2022-12-18T06:02:05;-7.90;99.90
12025;DHT22;6073;53.230;10.444;2022-12-18T06:04:30;-7.90;99.90
12025;DHT22;6073;53.230;10.444;2022-12-18T06:06:56;-7.90;99.90
12025;DHT22;6073;53.230;10.444;2022-12-18T06:09:22;-7.90;99.90
12025;DHT22;6073;53.230;10.444;2022-12-18T06:11:47;-7.90;99.90
12025;DHT22;6073;53.230;10.444;2022-12-18T06:14:13;-7.90;99.90
12025;DHT22;6073;53.230;10.444;2022-12-18T06:16:39;-7.90;99.90
12025;DHT22;6073;53.230;10.444;2022-12-18T06:19:05;-7.90;99.90
12025;DHT22;6073;53.230;10.444;2022-12-18T06:21:32;-7.80;99.90
12025;DHT22;6073;53.230;10.444;2022-12-18T06:23:57;-7.80;99.90
12025;DHT22;6073;53.230;10.444;2022-12-18T06:26:23;-7.70;99.90
12025;DHT22;6073;53.230;10.444;2022-12-18T06:28:49;-7.70;99.90
12025;DHT22;6073;53.230;10.444;2022-12-18T06:31:15;-7.70;99.90
12025;DHT22;6073;53.230;10.444;2022-12-18T06:33:40;-7.80;99.90
12025;DHT22;6073;53.230;10.444;2022-12-18T06:36:09;-7.80;99.90
12025;DHT22;6073;53.230;10.444;2022-12-18T06:38:37;-7.80;99.90
12025;DHT22;6073;53.230;10.444;2022-12-18T06:41:07;-7.80;99.90
12025;DHT22;6073;53.230;10.444;2022-12-18T06:43:33;-7.80;99.90
12025;DHT22;6073;53.230;10.444;2022-12-18T06:46:02;-7.80;99.90
12025;DHT22;6073;53.230;10.444;2022-12-18T06:48:28;-7.80;99.90
12025;DHT22;6073;53.230;10.444;2022-12-18T06:50:54;-7.80;99.90
12025;DHT22;6073;53.230;10.444;2022-12-18T06:53:19;-7.80;99.90
12025;DHT22;6073;53.230;10.444;2022-12-18T06:55:45;-7.90;99.90
12025;DHT22;6073;53.230;10.444;2022-12-18T06:58:10;-7.90;99.90
12025;DHT22;6073;53.230;10.444;2022-12-18T07:00:36;-7.90;99.90
12025;DHT22;6073;53.230;10.444;2022-12-18T07:03:01;-7.80;99.90
12025;DHT22;6073;53.230;10.444;2022-12-18T07:05:27;-7.80;99.90
12025;DHT22;6073;53.230;10.444;2022-12-18T07:07:52;-7.80;99.90
12025;DHT22;6073;53.230;10.444;2022-12-18T07:10:18;-7.80;99.90
12025;DHT22;6073;53.230;10.444;2022-12-18T07:12:44;-7.80;99.90
12025;DHT22;6073;53.230;10.444;2022-12-18T07:15:09;-7.80;99.90
12025;DHT22;6073;53.230;10.444;2022-12-18T07:17:35;-7.80;99.90
12025;DHT22;6073;53.230;10.444;2022-12-18T07:20:01;-7.80;99.90
12025;DHT22;6073;53.230;10.444;2022-12-18T07:22:26;-7.80;99.90
12025;DHT22;6073;53.230;10.444;2022-12-18T07:24:52;-7.80;99.90
12025;DHT22;6073;53.230;10.444;2022-12-18T07:27:18;-7.80;99.90
12025;DHT22;6073;53.230;10.444;2022-12-18T07:29:43;-7.80;99.90
12025;DHT22;6073;53.230;10.444;2022-12-18T07:32:09;-7.80;99.90
12025;DHT22;6073;53.230;10.444;2022-12-18T07:34:34;-7.80;99.90
12025;DHT22;6073;53.230;10.444;2022-12-18T07:37:00;-7.90;99.90
12025;DHT22;6073;53.230;10.444;2022-12-18T07:39:26;-7.90;99.90
12025;DHT22;6073;53.230;10.444;2022-12-18T07:41:51;-7.90;99.90
12025;DHT22;6073;53.230;10.444;2022-12-18T07:44:36;-7.90;99.90
12025;DHT22;6073;53.230;10.444;2022-12-18T07:47:02;-7.90;99.90
12025;DHT22;6073;53.230;10.444;2022-12-18T07:49:28;-7.90;99.90
12025;DHT22;6073;53.230;10.444;2022-12-18T07:51:57;-7.90;99.90
12025;DHT22;6073;53.230;10.444;2022-12-18T07:54:24;-7.80;99.90
12025;DHT22;6073;53.230;10.444;2022-12-18T07:56:50;-7.80;99.90
12025;DHT22;6073;53.230;10.444;2022-12-18T07:59:16;-7.80;99.90
12025;DHT22;6073;53.230;10.444;2022-12-18T08:01:42;-7.70;99.90
12025;DHT22;6073;53.230;10.444;2022-12-18T08:04:07;-7.70;99.90
12025;DHT22;6073;53.230;10.444;2022-12-18T08:06:33;-7.70;99.90
12025;DHT22;6073;53.230;10.444;2022-12-18T08:08:59;-7.70;99.90
12025;DHT22;6073;53.230;10.444;2022-12-18T08:11:27;-7.60;99.90
12025;DHT22;6073;53.230;10.444;2022-12-18T08:13:54;-7.60;99.90
12025;DHT22;6073;53.230;10.444;2022-12-18T08:16:20;-7.50;99.90
12025;DHT22;6073;53.230;10.444;2022-12-18T08:18:46;-7.40;99.90
12025;DHT22;6073;53.230;10.444;2022-12-18T08:21:19;-7.40;99.90
12025;DHT22;6073;53.230;10.444;2022-12-18T08:23:46;-7.40;99.90
12025;DHT22;6073;53.230;10.444;2022-12-18T08:26:12;-7.30;99.90
12025;DHT22;6073;53.230;10.444;2022-12-18T08:28:38;-7.20;99.90
12025;DHT22;6073;53.230;10.444;2022-12-18T08:31:04;-7.20;99.90
12025;DHT22;6073;53.230;10.444;2022-12-18T08:33:30;-7.10;99.90
12025;DHT22;6073;53.230;10.444;2022-12-18T08:35:57;-7.10;99.90
12025;DHT22;6073;53.230;10.444;2022-12-18T08:38:24;-7.00;99.90
12025;DHT22;6073;53.230;10.444;2022-12-18T08:40:53;-6.90;99.90
12025;DHT22;6073;53.230;10.444;2022-12-18T08:43:19;-6.70;99.90
12025;DHT22;6073;53.230;10.444;2022-12-18T08:46:03;-6.50;99.90
12025;DHT22;6073;53.230;10.444;2022-12-18T08:48:29;-6.30;99.90
12025;DHT22;6073;53.230;10.444;2022-12-18T08:50:59;-6.20;99.90
12025;DHT22;6073;53.230;10.444;2022-12-18T08:53:25;-6.10;99.90
12025;DHT22;6073;53.230;10.444;2022-12-18T08:55:51;-6.00;99.90
12025;DHT22;6073;53.230;10.444;2022-12-18T08:58:17;-6.00;99.90
12025;DHT22;6073;53.230;10.444;2022-12-18T09:00:42;-5.90;99.90
12025;DHT22;6073;53.230;10.444;2022-12-18T09:03:13;-5.80;99.90
12025;DHT22;6073;53.230;10.444;2022-12-18T09:05:39;-5.70;99.90
12025;DHT22;6073;53.230;10.444;2022-12-18T09:08:04;-5.50;99.90
12025;DHT22;6073;53.230;10.444;2022-12-18T09:10:30;-5.30;99.90
12025;DHT22;6073;53.230;10.444;2022-12-18T09:12:55;-4.90;99.90
12025;DHT22;6073;53.230;10.444;2022-12-18T09:15:21;-4.70;99.90
12025;DHT22;6073;53.230;10.444;2022-12-18T09:17:47;-4.30;99.90
12025;DHT22;6073;53.230;10.444;2022-12-18T09:20:13;-4.20;99.90
12025;DHT22;6073;53.230;10.444;2022-12-18T09:22:39;-4.20;99.90
12025;DHT22;6073;53.230;10.444;2022-12-18T09:25:04;-4.40;99.90
12025;DHT22;6073;53.230;10.444;2022-12-18T09:27:33;-4.60;99.90
12025;DHT22;6073;53.230;10.444;2022-12-18T09:29:59;-4.80;99.90
12025;DHT22;6073;53.230;10.444;2022-12-18T09:32:24;-4.90;99.90
12025;DHT22;6073;53.230;10.444;2022-12-18T09:34:50;-4.90;99.90
12025;DHT22;6073;53.230;10.444;2022-12-18T09:37:16;-5.00;99.90
12025;DHT22;6073;53.230;10.444;2022-12-18T09:39:41;-4.90;99.90
12025;DHT22;6073;53.230;10.444;2022-12-18T09:42:13;-5.00;99.90
12025;DHT22;6073;53.230;10.444;2022-12-18T09:44:45;-4.90;99.90
12025;DHT22;6073;53.230;10.444;2022-12-18T09:47:24;-4.90;99.90
12025;DHT22;6073;53.230;10.444;2022-12-18T09:49:58;-4.80;99.90
12025;DHT22;6073;53.230;10.444;2022-12-18T09:52:33;-4.80;99.90
12025;DHT22;6073;53.230;10.444;2022-12-18T09:57:50;-4.60;99.90
12025;DHT22;6073;53.230;10.444;2022-12-18T10:00:18;-4.60;99.90
12025;DHT22;6073;53.230;10.444;2022-12-18T10:02:44;-4.50;99.90
12025;DHT22;6073;53.230;10.444;2022-12-18T10:05:13;-4.40;99.90
12025;DHT22;6073;53.230;10.444;2022-12-18T10:08:13;-4.40;99.90
12025;DHT22;6073;53.230;10.444;2022-12-18T10:10:57;-4.40;99.90
12025;DHT22;6073;53.230;10.444;2022-12-18T10:13:29;-4.30;99.90
12025;DHT22;6073;53.230;10.444;2022-12-18T10:21:21;-4.10;99.90
12025;DHT22;6073;53.230;10.444;2022-12-18T10:24:17;-4.10;99.90
12025;DHT22;6073;53.230;10.444;2022-12-18T10:26:47;-4.10;99.90
12025;DHT22;6073;53.230;10.444;2022-12-18T10:29:15;-4.10;99.90
12025;DHT22;6073;53.230;10.444;2022-12-18T10:31:41;-4.00;99.90
12025;DHT22;6073;53.230;10.444;2022-12-18T10:34:11;-3.90;99.90
12025;DHT22;6073;53.230;10.444;2022-12-18T10:36:39;-3.90;99.90
12025;DHT22;6073;53.230;10.444;2022-12-18T10:39:17;-3.90;99.90
12025;DHT22;6073;53.230;10.444;2022-12-18T10:41:43;-3.80;99.90
12025;DHT22;6073;53.230;10.444;2022-12-18T10:46:37;-3.70;99.90
12025;DHT22;6073;53.230;10.444;2022-12-18T10:49:02;-3.60;99.90
12025;DHT22;6073;53.230;10.444;2022-12-18T10:51:33;-3.60;99.90
12025;DHT22;6073;53.230;10.444;2022-12-18T10:54:02;-3.60;99.90
12025;DHT22;6073;53.230;10.444;2022-12-18T10:56:29;-3.50;99.90
12025;DHT22;6073;53.230;10.444;2022-12-18T10:59:04;-3.50;99.90
12025;DHT22;6073;53.230;10.444;2022-12-18T11:04:20;-3.50;99.90
12025;DHT22;6073;53.230;10.444;2022-12-18T11:07:00;-3.60;99.90
12025;DHT22;6073;53.230;10.444;2022-12-18T11:09:28;-3.60;99.90
12025;DHT22;6073;53.230;10.444;2022-12-18T11:11:58;-3.50;99.90
12025;DHT22;6073;53.230;10.444;2022-12-18T11:14:29;-3.50;99.90
12025;DHT22;6073;53.230;10.444;2022-12-18T11:16:57;-3.50;99.90
12025;DHT22;6073;53.230;10.444;2022-12-18T11:19:36;-3.40;99.90
12025;DHT22;6073;53.230;10.444;2022-12-18T11:22:18;-3.40;99.90
12025;DHT22;6073;53.230;10.444;2022-12-18T11:25:16;-3.40;99.90
12025;DHT22;6073;53.230;10.444;2022-12-18T11:27:39;-3.40;99.90
12025;DHT22;6073;53.230;10.444;2022-12-18T11:30:21;-3.40;99.90
12025;DHT22;6073;53.230;10.444;2022-12-18T11:33:20;-3.40;99.90
12025;DHT22;6073;53.230;10.444;2022-12-18T11:35:56;-3.40;99.90
12025;DHT22;6073;53.230;10.444;2022-12-18T11:38:32;-3.40;99.90
12025;DHT22;6073;53.230;10.444;2022-12-18T11:43:55;-3.30;99.90
12025;DHT22;6073;53.230;10.444;2022-12-18T11:46:37;-3.20;99.90
12025;DHT22;6073;53.230;10.444;2022-12-18T11:49:10;-3.20;99.90
12025;DHT22;6073;53.230;10.444;2022-12-18T11:51:42;-3.10;99.90
12025;DHT22;6073;53.230;10.444;2022-12-18T11:54:16;-3.10;99.90
12025;DHT22;6073;53.230;10.444;2022-12-18T11:56:48;-3.00;99.90
12025;DHT22;6073;53.230;10.444;2022-12-18T11:59:30;-3.00;99.90
12025;DHT22;6073;53.230;10.444;2022-12-18T12:05:28;-2.90;99.90
12025;DHT22;6073;53.230;10.444;2022-12-18T12:10:49;-2.80;99.90
12025;DHT22;6073;53.230;10.444;2022-12-18T12:26:49;-2.70;99.90
12025;DHT22;6073;53.230;10.444;2022-12-18T12:35:35;-2.70;99.90
12025;DHT22;6073;53.230;10.444;2022-12-18T12:38:22;-2.60;99.90
12025;DHT22;6073;53.230;10.444;2022-12-18T12:40:54;-2.70;99.90
12025;DHT22;6073;53.230;10.444;2022-12-18T12:46:10;-2.70;99.90
12025;DHT22;6073;53.230;10.444;2022-12-18T12:48:43;-2.80;99.90
12025;DHT22;6073;53.230;10.444;2022-12-18T12:53:43;-2.70;99.90
12025;DHT22;6073;53.230;10.444;2022-12-18T12:56:13;-2.70;99.90
12025;DHT22;6073;53.230;10.444;2022-12-18T13:01:39;-2.70;99.90
12025;DHT22;6073;53.230;10.444;2022-12-18T13:07:06;-2.60;99.90
12025;DHT22;6073;53.230;10.444;2022-12-18T13:10:12;-2.50;99.90
12025;DHT22;6073;53.230;10.444;2022-12-18T13:12:58;-2.50;99.90
12025;DHT22;6073;53.230;10.444;2022-12-18T13:15:48;-2.50;99.90
12025;DHT22;6073;53.230;10.444;2022-12-18T13:18:22;-2.50;99.90
12025;DHT22;6073;53.230;10.444;2022-12-18T13:21:15;-2.50;99.90
12025;DHT22;6073;53.230;10.444;2022-12-18T13:23:44;-2.50;99.90
12025;DHT22;6073;53.230;10.444;2022-12-18T13:34:27;-2.70;99.90
12025;DHT22;6073;53.230;10.444;2022-12-18T13:39:39;-2.60;99.90
12025;DHT22;6073;53.230;10.444;2022-12-18T13:44:33;-2.70;99.90
12025;DHT22;6073;53.230;10.444;2022-12-18T13:47:04;-2.70;99.90
12025;DHT22;6073;53.230;10.444;2022-12-18T13:51:55;-2.90;99.90
12025;DHT22;6073;53.230;10.444;2022-12-18T13:54:33;-2.90;99.90
12025;DHT22;6073;53.230;10.444;2022-12-18T13:56:59;-2.90;99.90
12025;DHT22;6073;53.230;10.444;2022-12-18T13:59:32;-3.00;99.90
12025;DHT22;6073;53.230;10.444;2022-12-18T14:02:00;-3.10;99.90
12025;DHT22;6073;53.230;10.444;2022-12-18T14:04:31;-3.10;99.90
12025;DHT22;6073;53.230;10.444;2022-12-18T14:07:11;-3.10;99.90
12025;DHT22;6073;53.230;10.444;2022-12-18T14:09:49;-3.20;99.90
12025;DHT22;6073;53.230;10.444;2022-12-18T14:12:32;-3.20;99.90
12025;DHT22;6073;53.230;10.444;2022-12-18T14:17:54;-3.40;99.90
12025;DHT22;6073;53.230;10.444;2022-12-18T14:20:21;-3.30;99.90
12025;DHT22;6073;53.230;10.444;2022-12-18T14:22:48;-3.40;99.90
12025;DHT22;6073;53.230;10.444;2022-12-18T14:25:22;-3.40;99.90
12025;DHT22;6073;53.230;10.444;2022-12-18T14:30:37;-3.50;99.90
12025;DHT22;6073;53.230;10.444;2022-12-18T14:35:35;-3.50;99.90
12025;DHT22;6073;53.230;10.444;2022-12-18T14:38:26;-3.50;99.90
12025;DHT22;6073;53.230;10.444;2022-12-18T14:40:54;-3.50;99.90
12025;DHT22;6073;53.230;10.444;2022-12-18T14:43:21;-3.60;99.90
12025;DHT22;6073;53.230;10.444;2022-12-18T14:45:46;-3.60;99.90
12025;DHT22;6073;53.230;10.444;2022-12-18T14:48:21;-3.60;99.90
12025;DHT22;6073;53.230;10.444;2022-12-18T14:50:56;-3.60;99.90
12025;DHT22;6073;53.230;10.444;2022-12-18T14:53:38;-3.60;99.90
12025;DHT22;6073;53.230;10.444;2022-12-18T14:56:27;-3.60;99.90
12025;DHT22;6073;53.230;10.444;2022-12-18T15:01:26;-3.60;99.90
12025;DHT22;6073;53.230;10.444;2022-12-18T15:03:53;-3.60;99.90
12025;DHT22;6073;53.230;10.444;2022-12-18T15:06:31;-3.60;99.90
12025;DHT22;6073;53.230;10.444;2022-12-18T15:09:00;-3.60;99.90
12025;DHT22;6073;53.230;10.444;2022-12-18T15:13:54;-3.50;99.90
12025;DHT22;6073;53.230;10.444;2022-12-18T15:16:20;-3.50;99.90
12025;DHT22;6073;53.230;10.444;2022-12-18T15:18:46;-3.50;99.90
12025;DHT22;6073;53.230;10.444;2022-12-18T15:21:18;-3.50;99.90
12025;DHT22;6073;53.230;10.444;2022-12-18T15:26:12;-3.50;99.90
12025;DHT22;6073;53.230;10.444;2022-12-18T15:33:41;-3.60;99.90
12025;DHT22;6073;53.230;10.444;2022-12-18T15:36:13;-3.60;99.90
12025;DHT22;6073;53.230;10.444;2022-12-18T15:38:38;-3.60;99.90
12025;DHT22;6073;53.230;10.444;2022-12-18T15:41:04;-3.70;99.90
12025;DHT22;6073;53.230;10.444;2022-12-18T15:43:33;-3.70;99.90
12025;DHT22;6073;53.230;10.444;2022-12-18T15:46:11;-3.70;99.90
12025;DHT22;6073;53.230;10.444;2022-12-18T15:48:43;-3.70;99.90
12025;DHT22;6073;53.230;10.444;2022-12-18T15:51:17;-3.70;99.90
12025;DHT22;6073;53.230;10.444;2022-12-18T15:53:43;-3.70;99.90
12025;DHT22;6073;53.230;10.444;2022-12-18T15:56:11;-3.70;99.90
12025;DHT22;6073;53.230;10.444;2022-12-18T15:58:56;-3.60;99.90
12025;DHT22;6073;53.230;10.444;2022-12-18T16:01:24;-3.70;99.90
12025;DHT22;6073;53.230;10.444;2022-12-18T16:03:50;-3.60;99.90
12025;DHT22;6073;53.230;10.444;2022-12-18T16:06:16;-3.60;99.90
12025;DHT22;6073;53.230;10.444;2022-12-18T16:08:45;-3.60;99.90
12025;DHT22;6073;53.230;10.444;2022-12-18T16:11:28;-3.70;99.90
12025;DHT22;6073;53.230;10.444;2022-12-18T16:14:17;-3.60;99.90
12025;DHT22;6073;53.230;10.444;2022-12-18T16:16:48;-3.60;99.90
12025;DHT22;6073;53.230;10.444;2022-12-18T16:19:14;-3.50;99.90
12025;DHT22;6073;53.230;10.444;2022-12-18T16:21:39;-3.50;99.90
12025;DHT22;6073;53.230;10.444;2022-12-18T16:24:05;-3.50;99.90
12025;DHT22;6073;53.230;10.444;2022-12-18T16:26:34;-3.50;99.90
12025;DHT22;6073;53.230;10.444;2022-12-18T16:28:59;-3.40;99.90
12025;DHT22;6073;53.230;10.444;2022-12-18T16:31:25;-3.40;99.90
12025;DHT22;6073;53.230;10.444;2022-12-18T16:34:13;-3.40;99.90
12025;DHT22;6073;53.230;10.444;2022-12-18T16:36:39;-3.50;99.90
12025;DHT22;6073;53.230;10.444;2022-12-18T16:39:05;-3.50;99.90
12025;DHT22;6073;53.230;10.444;2022-12-18T16:41:31;-3.50;99.90
12025;DHT22;6073;53.230;10.444;2022-12-18T16:43:57;-3.40;99.90
12025;DHT22;6073;53.230;10.444;2022-12-18T16:46:23;-3.50;99.90
12025;DHT22;6073;53.230;10.444;2022-12-18T16:48:48;-3.40;99.90
12025;DHT22;6073;53.230;10.444;2022-12-18T16:51:14;-3.50;99.90
12025;DHT22;6073;53.230;10.444;2022-12-18T16:53:40;-3.50;99.90
12025;DHT22;6073;53.230;10.444;2022-12-18T16:56:05;-3.50;99.90
12025;DHT22;6073;53.230;10.444;2022-12-18T16:58:31;-3.40;99.90
12025;DHT22;6073;53.230;10.444;2022-12-18T17:00:56;-3.40;99.90
12025;DHT22;6073;53.230;10.444;2022-12-18T17:03:22;-3.40;99.90
12025;DHT22;6073;53.230;10.444;2022-12-18T17:05:47;-3.40;99.90
12025;DHT22;6073;53.230;10.444;2022-12-18T17:08:13;-3.40;99.90
12025;DHT22;6073;53.230;10.444;2022-12-18T17:10:39;-3.40;99.90
12025;DHT22;6073;53.230;10.444;2022-12-18T17:13:04;-3.30;99.90
12025;DHT22;6073;53.230;10.444;2022-12-18T17:15:30;-3.40;99.90
12025;DHT22;6073;53.230;10.444;2022-12-18T17:17:58;-3.30;99.90
12025;DHT22;6073;53.230;10.444;2022-12-18T17:20:24;-3.30;99.90
12025;DHT22;6073;53.230;10.444;2022-12-18T17:22:49;-3.30;99.90
12025;DHT22;6073;53.230;10.444;2022-12-18T17:25:15;-3.30;99.90
12025;DHT22;6073;53.230;10.444;2022-12-18T17:27:41;-3.30;99.90
12025;DHT22;6073;53.230;10.444;2022-12-18T17:30:07;-3.30;99.90
12025;DHT22;6073;53.230;10.444;2022-12-18T17:32:32;-3.30;99.90
12025;DHT22;6073;53.230;10.444;2022-12-18T17:34:58;-3.20;99.90
12025;DHT22;6073;53.230;10.444;2022-12-18T17:37:23;-3.30;99.90
12025;DHT22;6073;53.230;10.444;2022-12-18T17:39:49;-3.20;99.90